Tim S. Dool — VGPY — position and weather

sailwx.info

Track history (hours):
 
Tides and Currents Weather Stations Pressure Air Temp Water Temp Dewpoint Dewpoint Depression Visibility Wind Speed Wind Dir Waves Ship Positions

Tim S. Dool

Last reported at 2014-Aug-28 01:00 UTC. Time now 2014-Aug-28 13:23 UTC.
Position N 47°42' W 087°06'.

Length 223 m; draft 7.8 m.

Type: Cargo ship. MMSI: 316001696.

Wind from 260 at 2 knots

Waves 0.5 meters (2 feet), 5 second period

Barometer 1018.0 mb
Air temperature 14.0 ° C
Visibility: greater than 10.8 NM

Date/timePositionNaut miles runAvg speedWind from/ knotsBaromVisibWave heightAir tempDewpointWater temp
2014-Aug-28 01:00N 47°42' W 087°06'158 9.4 260 / 21018.010.8 0.514.0
2014-Aug-27 08:14N 46°07' W 084°01'268 8.6
2014-Aug-26 01:00N 42°06' W 081°18'11010.0 110 / 91015.010.8 0.524.0
2014-Aug-25 14:00N 43°06' W 079°12'1 3.3 170 / 51007.010.8 23.0
2014-Aug-25 13:33N 43°07' W 079°12'1 0.5
2014-Aug-25 12:33N 43°08' W 079°12'5 1.2
2014-Aug-25 08:20N 43°13' W 079°13'1 0.7
2014-Aug-25 07:27N 43°14' W 079°13'26 6.3
2014-Aug-25 03:24N 43°16' W 079°48'0 0.0
2014-Aug-25 02:33N 43°16' W 079°48'0 0.0
2014-Aug-25 01:33N 43°16' W 079°48'0 0.0
2014-Aug-25 00:33N 43°16' W 079°48'0 0.0
2014-Aug-24 23:33N 43°16' W 079°48'0 0.0
2014-Aug-24 22:32N 43°16' W 079°48'0 0.0
2014-Aug-24 21:24N 43°16' W 079°48'0 0.0
2014-Aug-24 20:33N 43°16' W 079°48'0 0.0
2014-Aug-24 19:33N 43°16' W 079°48'0 0.0
2014-Aug-24 18:33N 43°16' W 079°48'72 4.8
2014-Aug-24 03:33N 43°36' W 078°12'3112.1
2014-Aug-24 01:00N 43°42' W 077°30'3913.6 080 / 111007.0 0.521.0
2014-Aug-23 22:05N 43°57' W 076°39'712.6
2014-Aug-23 21:33N 43°60' W 076°31'1211.8
2014-Aug-23 20:33N 44°09' W 076°20'1110.8
2014-Aug-23 19:33N 44°14' W 076°07'113 7.1
2014-Aug-23 03:33N 45°18' W 073°56'1 1.0
2014-Aug-23 02:33N 45°19' W 073°55'1 1.4
2014-Aug-23 01:33N 45°20' W 073°54'916.3
2014-Aug-23 01:00N 45°24' W 073°42'1 2.5 110 / 41012.010.8 22.0
2014-Aug-23 00:33N 45°24' W 073°43'6 5.7
2014-Aug-22 23:33N 45°24' W 073°35'2 1.6
2014-Aug-22 22:33N 45°24' W 073°33'4 4.4
2014-Aug-22 21:33N 45°29' W 073°30'2 1.7
2014-Aug-22 20:33N 45°30' W 073°31'5 5.4
2014-Aug-22 19:33N 45°35' W 073°30'9 8.6
2014-Aug-22 18:33N 45°43' W 073°26'9 9.4
2014-Aug-22 17:33N 45°51' W 073°17'9 9.2
2014-Aug-22 16:33N 45°59' W 073°11'9 9.0
2014-Aug-22 15:33N 46°05' W 073°01'10 9.5
2014-Aug-22 14:33N 46°12' W 072°52'1010.3
2014-Aug-22 13:33N 46°16' W 072°39'10 9.9
2014-Aug-22 12:33N 46°23' W 072°28'1010.1
2014-Aug-22 11:33N 46°28' W 072°15'1010.0
2014-Aug-22 10:33N 46°34' W 072°04'1211.7
2014-Aug-22 09:33N 46°41' W 071°50'1812.5
2014-Aug-22 08:09N 46°43' W 071°24'814.2
2014-Aug-22 07:33N 46°47' W 071°14'1212.1
2014-Aug-22 06:33N 46°52' W 070°58'1414.1
2014-Aug-22 05:33N 47°03' W 070°45'1414.2
2014-Aug-22 04:33N 47°15' W 070°34'1313.5
2014-Aug-22 03:33N 47°26' W 070°23'1211.8
2014-Aug-22 02:32N 47°34' W 070°08'1312.9
2014-Aug-22 01:33N 47°43' W 069°57'1211.9
2014-Aug-22 00:33N 47°54' W 069°48'1110.7
2014-Aug-21 23:33N 48°03' W 069°39'1111.0
2014-Aug-21 22:33N 48°12' W 069°31'2911.8
2014-Aug-21 20:06N 48°32' W 068°59'611.3
2014-Aug-21 19:33N 48°35' W 068°51'1212.3
2014-Aug-21 18:33N 48°42' W 068°36'1312.8
2014-Aug-21 17:33N 48°49' W 068°19'1212.4
2014-Aug-21 16:33N 48°56' W 068°03'1211.8
2014-Aug-21 15:33N 49°02' W 067°48'1413.0
2014-Aug-21 14:31N 49°10' W 067°31'1314.0
2014-Aug-21 13:33N 49°16' W 067°13'1413.5
2014-Aug-21 12:30N 49°29' W 067°04'1513.8
2014-Aug-21 11:25N 49°43' W 066°54'1413.5
2014-Aug-21 10:22N 49°57' W 066°49'4 0.2
2014-Aug-20 17:26N 50°00' W 066°46'1 0.6
2014-Aug-20 16:32N 49°60' W 066°46'0 0.0
2014-Aug-20 15:33N 49°60' W 066°46'0 0.0
2014-Aug-20 14:33N 49°60' W 066°46'0 0.1
2014-Aug-20 13:08N 49°60' W 066°46'0 0.0
2014-Aug-20 12:33N 49°60' W 066°46'0 0.1
2014-Aug-20 11:33N 49°60' W 066°46'0 0.0
2014-Aug-20 10:33N 49°60' W 066°46'0 0.0
2014-Aug-20 09:31N 49°60' W 066°46'0 0.1
2014-Aug-20 08:33N 49°60' W 066°46'0 0.0
2014-Aug-20 07:33N 49°60' W 066°46'0 0.0
2014-Aug-20 06:33N 49°60' W 066°46'0 0.0
2014-Aug-20 05:33N 49°60' W 066°46'0 0.0
2014-Aug-20 04:33N 49°60' W 066°46'0 0.0
2014-Aug-20 03:33N 49°60' W 066°46'0 0.0
2014-Aug-20 02:33N 49°60' W 066°46'0 0.0
2014-Aug-20 01:32N 49°60' W 066°46'0 0.1
2014-Aug-20 00:33N 49°60' W 066°45'0 0.1
2014-Aug-19 23:33N 49°60' W 066°45'0 0.1
2014-Aug-19 22:33N 49°60' W 066°45'0 0.0
2014-Aug-19 20:15N 49°60' W 066°46'0 0.0
2014-Aug-19 16:32N 49°60' W 066°46'0 0.0
2014-Aug-19 14:20N 49°60' W 066°46'0 0.0
2014-Aug-19 13:33N 49°60' W 066°46'0 0.0
2014-Aug-19 12:33N 49°60' W 066°46'0 0.0
2014-Aug-19 11:33N 49°60' W 066°46'0 0.0
2014-Aug-19 10:33N 49°60' W 066°46'2 0.7
2014-Aug-19 07:06N 50°02' W 066°47'0 0.0
2014-Aug-19 06:04N 50°02' W 066°47'0 0.0
2014-Aug-19 05:31N 50°02' W 066°47'0 0.0
2014-Aug-19 04:33N 50°02' W 066°47'0 0.0
2014-Aug-19 03:33N 50°02' W 066°47'0 0.0
2014-Aug-19 02:33N 50°02' W 066°47'0 0.0
2014-Aug-19 01:33N 50°02' W 066°47'0 0.0
2014-Aug-19 00:33N 50°02' W 066°47'0 0.0
2014-Aug-18 23:33N 50°02' W 066°47'0 0.0
2014-Aug-18 22:33N 50°02' W 066°47'0 0.0
2014-Aug-18 21:33N 50°02' W 066°47'0 0.0
2014-Aug-18 18:33N 50°02' W 066°47'0 0.0
2014-Aug-18 17:33N 50°02' W 066°47'0 0.0
2014-Aug-18 14:33N 50°02' W 066°47'0 0.0
2014-Aug-18 13:33N 50°02' W 066°47'0 0.0
2014-Aug-18 12:33N 50°02' W 066°47'  
Track history (hours):
 
Tides and Currents Weather Stations Pressure Air Temp Water Temp Dewpoint Dewpoint Depression Visibility Wind Speed Wind Dir Waves Ship Positions

Tim S. Dool

Last reported at 2014-Aug-28 01:00 UTC. Time now 2014-Aug-28 13:23 UTC.
Position N 47°42' W 087°06'.

Length 223 m; draft 7.8 m.

Type: Cargo ship. MMSI: 316001696.

Wind from 260 at 2 knots

Waves 0.5 meters (2 feet), 5 second period

Barometer 1018.0 mb
Air temperature 14.0 ° C
Visibility: greater than 10.8 NM

Date/timePositionNaut miles runAvg speedWind from/ knotsBaromVisibWave heightAir tempDewpointWater temp
2014-Aug-28 01:00N 47°42' W 087°06'158 9.4 260 / 21018.010.8 0.514.0
2014-Aug-27 08:14N 46°07' W 084°01'268 8.6
2014-Aug-26 01:00N 42°06' W 081°18'11010.0 110 / 91015.010.8 0.524.0
2014-Aug-25 14:00N 43°06' W 079°12'1 3.3 170 / 51007.010.8 23.0
2014-Aug-25 13:33N 43°07' W 079°12'1 0.5
2014-Aug-25 12:33N 43°08' W 079°12'5 1.2
2014-Aug-25 08:20N 43°13' W 079°13'1 0.7
2014-Aug-25 07:27N 43°14' W 079°13'26 6.3
2014-Aug-25 03:24N 43°16' W 079°48'0 0.0
2014-Aug-25 02:33N 43°16' W 079°48'0 0.0
2014-Aug-25 01:33N 43°16' W 079°48'0 0.0
2014-Aug-25 00:33N 43°16' W 079°48'0 0.0
2014-Aug-24 23:33N 43°16' W 079°48'0 0.0
2014-Aug-24 22:32N 43°16' W 079°48'0 0.0
2014-Aug-24 21:24N 43°16' W 079°48'0 0.0
2014-Aug-24 20:33N 43°16' W 079°48'0 0.0
2014-Aug-24 19:33N 43°16' W 079°48'0 0.0
2014-Aug-24 18:33N 43°16' W 079°48'72 4.8
2014-Aug-24 03:33N 43°36' W 078°12'3112.1
2014-Aug-24 01:00N 43°42' W 077°30'3913.6 080 / 111007.0 0.521.0
2014-Aug-23 22:05N 43°57' W 076°39'712.6
2014-Aug-23 21:33N 43°60' W 076°31'1211.8
2014-Aug-23 20:33N 44°09' W 076°20'1110.8
2014-Aug-23 19:33N 44°14' W 076°07'113 7.1
2014-Aug-23 03:33N 45°18' W 073°56'1 1.0
2014-Aug-23 02:33N 45°19' W 073°55'1 1.4
2014-Aug-23 01:33N 45°20' W 073°54'916.3
2014-Aug-23 01:00N 45°24' W 073°42'1 2.5 110 / 41012.010.8 22.0
2014-Aug-23 00:33N 45°24' W 073°43'6 5.7
2014-Aug-22 23:33N 45°24' W 073°35'2 1.6
2014-Aug-22 22:33N 45°24' W 073°33'4 4.4
2014-Aug-22 21:33N 45°29' W 073°30'2 1.7
2014-Aug-22 20:33N 45°30' W 073°31'5 5.4
2014-Aug-22 19:33N 45°35' W 073°30'9 8.6
2014-Aug-22 18:33N 45°43' W 073°26'9 9.4
2014-Aug-22 17:33N 45°51' W 073°17'9 9.2
2014-Aug-22 16:33N 45°59' W 073°11'9 9.0
2014-Aug-22 15:33N 46°05' W 073°01'10 9.5
2014-Aug-22 14:33N 46°12' W 072°52'1010.3
2014-Aug-22 13:33N 46°16' W 072°39'10 9.9
2014-Aug-22 12:33N 46°23' W 072°28'1010.1
2014-Aug-22 11:33N 46°28' W 072°15'1010.0
2014-Aug-22 10:33N 46°34' W 072°04'1211.7
2014-Aug-22 09:33N 46°41' W 071°50'1812.5
2014-Aug-22 08:09N 46°43' W 071°24'814.2
2014-Aug-22 07:33N 46°47' W 071°14'1212.1
2014-Aug-22 06:33N 46°52' W 070°58'1414.1
2014-Aug-22 05:33N 47°03' W 070°45'1414.2
2014-Aug-22 04:33N 47°15' W 070°34'1313.5
2014-Aug-22 03:33N 47°26' W 070°23'1211.8
2014-Aug-22 02:32N 47°34' W 070°08'1312.9
2014-Aug-22 01:33N 47°43' W 069°57'1211.9
2014-Aug-22 00:33N 47°54' W 069°48'1110.7
2014-Aug-21 23:33N 48°03' W 069°39'1111.0
2014-Aug-21 22:33N 48°12' W 069°31'2911.8
2014-Aug-21 20:06N 48°32' W 068°59'611.3
2014-Aug-21 19:33N 48°35' W 068°51'1212.3
2014-Aug-21 18:33N 48°42' W 068°36'1312.8
2014-Aug-21 17:33N 48°49' W 068°19'1212.4
2014-Aug-21 16:33N 48°56' W 068°03'1211.8
2014-Aug-21 15:33N 49°02' W 067°48'1413.0
2014-Aug-21 14:31N 49°10' W 067°31'1314.0
2014-Aug-21 13:33N 49°16' W 067°13'1413.5
2014-Aug-21 12:30N 49°29' W 067°04'1513.8
2014-Aug-21 11:25N 49°43' W 066°54'1413.5
2014-Aug-21 10:22N 49°57' W 066°49'4 0.2
2014-Aug-20 17:26N 50°00' W 066°46'1 0.6
2014-Aug-20 16:32N 49°60' W 066°46'0 0.0
2014-Aug-20 15:33N 49°60' W 066°46'0 0.0
2014-Aug-20 14:33N 49°60' W 066°46'0 0.1
2014-Aug-20 13:08N 49°60' W 066°46'0 0.0
2014-Aug-20 12:33N 49°60' W 066°46'0 0.1
2014-Aug-20 11:33N 49°60' W 066°46'0 0.0
2014-Aug-20 10:33N 49°60' W 066°46'0 0.0
2014-Aug-20 09:31N 49°60' W 066°46'0 0.1
2014-Aug-20 08:33N 49°60' W 066°46'0 0.0
2014-Aug-20 07:33N 49°60' W 066°46'0 0.0
2014-Aug-20 06:33N 49°60' W 066°46'0 0.0
2014-Aug-20 05:33N 49°60' W 066°46'0 0.0
2014-Aug-20 04:33N 49°60' W 066°46'0 0.0
2014-Aug-20 03:33N 49°60' W 066°46'0 0.0
2014-Aug-20 02:33N 49°60' W 066°46'0 0.0
2014-Aug-20 01:32N 49°60' W 066°46'0 0.1
2014-Aug-20 00:33N 49°60' W 066°45'0 0.1
2014-Aug-19 23:33N 49°60' W 066°45'0 0.1
2014-Aug-19 22:33N 49°60' W 066°45'0 0.0
2014-Aug-19 20:15N 49°60' W 066°46'0 0.0
2014-Aug-19 16:32N 49°60' W 066°46'0 0.0
2014-Aug-19 14:20N 49°60' W 066°46'0 0.0
2014-Aug-19 13:33N 49°60' W 066°46'0 0.0
2014-Aug-19 12:33N 49°60' W 066°46'0 0.0
2014-Aug-19 11:33N 49°60' W 066°46'0 0.0
2014-Aug-19 10:33N 49°60' W 066°46'2 0.7
2014-Aug-19 07:06N 50°02' W 066°47'0 0.0
2014-Aug-19 06:04N 50°02' W 066°47'0 0.0
2014-Aug-19 05:31N 50°02' W 066°47'0 0.0
2014-Aug-19 04:33N 50°02' W 066°47'0 0.0
2014-Aug-19 03:33N 50°02' W 066°47'0 0.0
2014-Aug-19 02:33N 50°02' W 066°47'0 0.0
2014-Aug-19 01:33N 50°02' W 066°47'0 0.0
2014-Aug-19 00:33N 50°02' W 066°47'0 0.0
2014-Aug-18 23:33N 50°02' W 066°47'0 0.0
2014-Aug-18 22:33N 50°02' W 066°47'0 0.0
2014-Aug-18 21:33N 50°02' W 066°47'0 0.0
2014-Aug-18 18:33N 50°02' W 066°47'0 0.0
2014-Aug-18 17:33N 50°02' W 066°47'0 0.0
2014-Aug-18 14:33N 50°02' W 066°47'0 0.0
2014-Aug-18 13:33N 50°02' W 066°47'0 0.0
2014-Aug-18 12:33N 50°02' W 066°47'  

Dump ship's entire track history